Time;durP1;ratioP1;P1;durP2;ratioP2;P2;SDS_P1;SDS_P2;PMS_P1;PMS_P2;Temp;Humidity;BMP_temperature;BMP_pressure;BME280_temperature;BME280_humidity;BME280_pressure;Samples;Min_cycle;Max_cycle;Signal;HPM_P1;HPM_P2
2023/07/16 00:01:26;;;;;;;4.97;3.60;;;;;;;21.20;72.26;96734.16;5113703;28;20050;-68
2023/07/16 00:03:53;;;;;;;6.13;3.83;;;;;;;21.12;72.56;96736.59;5133277;27;20057;-69
2023/07/16 00:06:22;;;;;;;4.90;3.60;;;;;;;21.11;72.26;96740.22;5134227;27;20043;-72
2023/07/16 00:08:49;;;;;;;4.05;3.65;;;;;;;21.05;71.94;96730.91;5114521;28;20044;-67
2023/07/16 00:11:16;;;;;;;7.28;3.60;;;;;;;21.00;72.06;96738.38;5113746;28;20126;-72
2023/07/16 00:13:46;;;;;;;10.77;3.10;;;;;;;21.01;72.05;96725.94;5113567;28;20130;-71
2023/07/16 00:16:13;;;;;;;4.22;3.50;;;;;;;20.93;73.08;96729.19;5113677;28;20569;-72
2023/07/16 00:18:42;;;;;;;5.75;3.53;;;;;;;20.92;73.07;96730.19;5131097;27;20475;-68
2023/07/16 00:21:09;;;;;;;4.95;4.05;;;;;;;20.84;73.73;96725.41;5134108;27;20051;-70
2023/07/16 00:23:38;;;;;;;5.20;4.07;;;;;;;20.70;74.73;96718.50;5116191;28;20480;-68
2023/07/16 00:26:05;;;;;;;11.55;3.88;;;;;;;20.69;74.79;96720.31;5113656;28;20409;-69
2023/07/16 00:28:32;;;;;;;4.07;3.63;;;;;;;20.66;74.98;96709.06;5113837;28;20109;-72
2023/07/16 00:30:59;;;;;;;7.88;3.83;;;;;;;20.64;74.96;96714.50;5113303;28;20390;-67
2023/07/16 00:33:26;;;;;;;4.40;3.47;;;;;;;20.65;74.79;96712.69;5128490;28;20070;-65
2023/07/16 00:35:53;;;;;;;6.00;3.50;;;;;;;20.62;74.41;96712.94;5133792;28;20043;-66
2023/07/16 00:38:21;;;;;;;5.53;4.05;;;;;;;20.64;74.37;96716.28;5118911;27;20126;-64
2023/07/16 00:40:49;;;;;;;4.85;3.30;;;;;;;20.65;74.43;96720.66;5113374;28;20043;-69
2023/07/16 00:43:17;;;;;;;5.10;3.50;;;;;;;20.65;74.57;96716.19;5127319;28;20047;-70
2023/07/16 00:45:46;;;;;;;4.40;3.95;;;;;;;20.67;74.25;96716.91;5133715;27;20093;-67
2023/07/16 00:48:14;;;;;;;5.88;3.85;;;;;;;20.69;74.32;96716.81;5133510;28;20047;-68
2023/07/16 00:50:42;;;;;;;3.63;3.33;;;;;;;20.69;74.05;96716.81;5133817;28;20116;-73
2023/07/16 00:53:10;;;;;;;5.80;3.90;;;;;;;20.68;73.68;96715.94;5133561;28;20043;-72
2023/07/16 00:55:37;;;;;;;4.95;3.92;;;;;;;20.66;74.11;96709.06;5131668;27;20043;-71
2023/07/16 00:58:07;;;;;;;4.30;3.90;;;;;;;20.62;74.13;96711.09;5132539;28;20096;-69
2023/07/16 01:00:36;;;;;;;5.70;3.83;;;;;;;20.54;74.14;96711.72;5135662;27;20039;-67
2023/07/16 01:03:03;;;;;;;5.63;3.88;;;;;;;20.53;74.72;96712.66;5125460;27;20423;-70
2023/07/16 01:05:40;;;;;;;5.30;3.80;;;;;;;20.53;74.12;96707.34;5117147;28;20048;-72
2023/07/16 01:08:11;;;;;;;5.75;3.50;;;;;;;20.54;74.13;96709.06;5129087;27;20039;-67
2023/07/16 01:10:39;;;;;;;4.00;3.60;;;;;;;20.58;74.54;96702.53;5129886;27;20036;-69
2023/07/16 01:13:08;;;;;;;4.15;3.75;;;;;;;20.57;74.15;96703.50;5128919;27;20047;-70
2023/07/16 01:15:35;;;;;;;3.88;3.58;;;;;;;20.57;73.46;96700.00;5137331;27;20146;-72
2023/07/16 01:18:02;;;;;;;8.50;3.95;;;;;;;20.52;73.56;96703.00;5125562;27;20051;-73
2023/07/16 01:20:30;;;;;;;5.03;3.50;;;;;;;20.48;73.89;96701.53;5116737;28;20046;-74
2023/07/16 01:23:19;;;;;;;5.85;3.78;;;;;;;20.42;73.61;96688.72;5126919;27;20103;-69
2023/07/16 01:26:06;;;;;;;6.00;3.80;;;;;;;20.38;73.89;96698.72;5137176;27;20054;-67
2023/07/16 01:29:13;;;;;;;7.38;3.83;;;;;;;20.37;74.09;96691.72;5135168;27;20476;-68
2023/07/16 01:31:41;;;;;;;5.45;3.65;;;;;;;20.27;74.00;96694.25;5136961;27;20043;-70
2023/07/16 01:34:11;;;;;;;4.32;3.70;;;;;;;20.26;74.13;96697.84;5136427;27;20086;-69
2023/07/16 01:36:40;;;;;;;4.57;4.13;;;;;;;20.25;74.47;96701.47;5136972;27;20472;-69
2023/07/16 01:39:07;;;;;;;5.13;4.10;;;;;;;20.22;74.67;96696.38;5135366;27;20043;-69
2023/07/16 01:41:34;;;;;;;3.83;3.40;;;;;;;20.20;74.81;96695.66;5137088;27;20039;-70
2023/07/16 01:44:02;;;;;;;4.82;4.03;;;;;;;20.14;74.81;96694.28;5117273;27;20513;-69
2023/07/16 01:46:30;;;;;;;6.35;4.05;;;;;;;20.11;74.64;96701.66;5116333;28;20052;-69
2023/07/16 01:48:57;;;;;;;5.47;3.50;;;;;;;20.05;74.73;96706.44;5134631;27;20125;-70
2023/07/16 01:51:24;;;;;;;8.30;3.80;;;;;;;20.08;74.46;96698.25;5136470;27;20460;-67
2023/07/16 01:53:51;;;;;;;6.60;3.95;;;;;;;20.08;74.68;96698.25;5118726;27;20457;-66
2023/07/16 01:56:18;;;;;;;4.57;3.67;;;;;;;20.08;74.49;96706.22;5116018;28;20055;-71
2023/07/16 01:58:45;;;;;;;7.07;3.63;;;;;;;20.09;74.53;96707.09;5132585;27;20047;-72
2023/07/16 02:01:12;;;;;;;4.15;3.75;;;;;;;20.04;74.55;96704.75;5136650;27;20093;-72
2023/07/16 02:03:41;;;;;;;4.70;3.60;;;;;;;20.03;74.74;96707.53;5120279;27;20144;-69
2023/07/16 02:06:08;;;;;;;4.38;3.40;;;;;;;20.04;74.21;96711.88;5115961;28;20039;-70
2023/07/16 02:08:35;;;;;;;4.85;3.85;;;;;;;20.01;74.39;96709.44;5116102;27;20104;-69
2023/07/16 02:11:02;;;;;;;4.93;3.60;;;;;;;20.00;74.64;96711.22;5115463;28;20043;-70
2023/07/16 02:13:29;;;;;;;5.22;3.88;;;;;;;19.98;74.71;96704.34;5129879;27;20126;-72
2023/07/16 02:15:56;;;;;;;4.00;3.50;;;;;;;19.94;74.04;96703.72;5136482;27;20507;-67
2023/07/16 02:18:23;;;;;;;5.40;3.55;;;;;;;19.88;73.90;96699.72;5122489;27;20126;-67
2023/07/16 02:20:51;;;;;;;4.82;3.53;;;;;;;19.83;74.06;96699.19;5115503;28;20047;-68
2023/07/16 02:23:18;;;;;;;4.57;3.53;;;;;;;19.74;74.97;96699.88;5127838;27;20163;-67
2023/07/16 02:25:45;;;;;;;6.13;3.78;;;;;;;19.68;74.84;96696.72;5136117;27;20043;-64
2023/07/16 02:28:12;;;;;;;5.75;3.65;;;;;;;19.63;75.04;96693.53;5123846;27;20539;-68
2023/07/16 02:30:41;;;;;;;7.18;4.32;;;;;;;19.57;75.16;96694.00;5115354;28;20089;-70
2023/07/16 02:33:08;;;;;;;5.53;3.88;;;;;;;19.55;75.06;96699.41;5125808;27;20488;-68
2023/07/16 02:35:36;;;;;;;5.18;3.97;;;;;;;19.44;76.40;96700.19;5135956;27;20047;-73
2023/07/16 02:38:04;;;;;;;5.00;4.13;;;;;;;19.36;77.20;96691.94;5125756;27;20431;-73
2023/07/16 02:40:31;;;;;;;4.70;4.07;;;;;;;19.36;77.04;96699.88;5114975;28;20097;-73
2023/07/16 02:42:58;;;;;;;5.07;4.03;;;;;;;19.28;77.44;96702.22;5124026;27;20043;-71
2023/07/16 02:45:26;;;;;;;4.75;4.30;;;;;;;19.28;77.67;96696.91;5121910;27;20127;-72
2023/07/16 02:47:53;;;;;;;4.53;3.88;;;;;;;19.19;78.52;96707.22;5123066;27;20039;-68
2023/07/16 02:50:20;;;;;;;5.82;4.60;;;;;;;19.20;77.92;96705.41;5135550;27;20404;-73
2023/07/16 02:52:47;;;;;;;5.18;4.65;;;;;;;19.20;77.40;96705.41;5127723;27;20039;-72
2023/07/16 02:55:15;;;;;;;4.55;3.92;;;;;;;19.25;77.53;96707.75;5115026;28;20112;-71
2023/07/16 02:57:42;;;;;;;14.18;4.10;;;;;;;19.25;77.29;96707.75;5121525;27;20088;-71
2023/07/16 03:00:10;;;;;;;6.10;4.07;;;;;;;19.22;76.81;96713.25;5135216;27;20049;-72
2023/07/16 03:02:37;;;;;;;5.35;3.83;;;;;;;19.17;76.77;96713.56;5122895;27;20503;-73
2023/07/16 03:05:05;;;;;;;4.93;3.28;;;;;;;19.18;76.96;96713.47;5115093;28;20044;-73
2023/07/16 03:07:32;;;;;;;5.10;4.38;;;;;;;19.17;76.92;96714.44;5119550;27;20074;-71
2023/07/16 03:09:59;;;;;;;5.97;3.92;;;;;;;19.19;76.86;96717.84;5134947;27;20054;-76
2023/07/16 03:12:27;;;;;;;5.32;3.75;;;;;;;19.23;76.24;96717.63;5130771;27;20081;-71
2023/07/16 03:14:54;;;;;;;4.28;3.88;;;;;;;19.22;76.64;96713.25;5114819;28;20466;-70
2023/07/16 03:17:22;;;;;;;4.82;4.15;;;;;;;19.21;76.22;96715.09;5117368;27;20049;-71
2023/07/16 03:19:49;;;;;;;6.82;3.80;;;;;;;19.22;75.87;96710.59;5132550;27;20119;-67
2023/07/16 03:22:16;;;;;;;4.07;3.70;;;;;;;19.25;75.99;96716.56;5131887;27;20132;-65
2023/07/16 03:24:43;;;;;;;5.95;3.90;;;;;;;19.30;76.11;96716.22;5114097;28;20135;-62
2023/07/16 03:27:10;;;;;;;4.80;3.45;;;;;;;19.34;75.78;96714.19;5121590;27;20400;-71
2023/07/16 03:29:38;;;;;;;5.47;3.60;;;;;;;19.40;75.42;96711.97;5114380;28;20554;-68
2023/07/16 03:32:06;;;;;;;4.85;3.72;;;;;;;19.44;75.20;96720.53;5114801;27;20043;-71
2023/07/16 03:34:33;;;;;;;4.45;3.88;;;;;;;19.41;75.08;96723.41;5114454;28;20488;-69
2023/07/16 03:37:00;;;;;;;4.00;3.60;;;;;;;19.44;74.88;96726.69;5114101;28;20454;-72
2023/07/16 03:39:27;;;;;;;5.93;3.53;;;;;;;19.52;74.83;96727.94;5114240;28;20040;-77
2023/07/16 03:41:54;;;;;;;4.57;3.50;;;;;;;19.62;74.92;96725.50;5114143;28;20508;-70
2023/07/16 03:44:22;;;;;;;5.15;3.75;;;;;;;19.70;74.55;96726.66;5133879;27;20091;-67
2023/07/16 03:46:50;;;;;;;3.83;3.50;;;;;;;19.85;74.11;96729.13;5134510;27;20239;-73
2023/07/16 03:49:17;;;;;;;4.30;3.40;;;;;;;20.01;74.00;96733.34;5114926;27;20048;-70
2023/07/16 03:51:44;;;;;;;3.85;3.53;;;;;;;20.28;73.21;96732.25;5114078;28;20054;-67
2023/07/16 03:54:11;;;;;;;5.03;3.42;;;;;;;20.60;71.69;96733.44;5132158;27;20054;-68
2023/07/16 03:56:39;;;;;;;4.07;2.92;;;;;;;20.87;71.04;96734.97;5134416;27;20047;-67
2023/07/16 03:59:06;;;;;;;3.35;3.05;;;;;;;21.21;69.66;96735.88;5116763;27;20040;-68
2023/07/16 04:01:33;;;;;;;3.65;3.35;;;;;;;21.53;68.51;96731.63;5113799;28;20473;-71
2023/07/16 04:04:01;;;;;;;3.28;2.95;;;;;;;21.84;67.34;96733.66;5114237;27;20135;-68
2023/07/16 04:06:28;;;;;;;4.70;3.10;;;;;;;22.19;66.00;96734.41;5113797;28;20131;-71
2023/07/16 04:08:55;;;;;;;3.30;2.90;;;;;;;22.52;65.62;96740.56;5129121;27;20085;-69
2023/07/16 04:11:22;;;;;;;3.90;3.03;;;;;;;22.95;64.31;96740.59;5134223;27;20044;-73
2023/07/16 04:13:49;;;;;;;3.92;3.00;;;;;;;23.33;62.20;96735.59;5119298;27;20051;-71
2023/07/16 04:16:16;;;;;;;2.95;2.75;;;;;;;23.60;61.78;96742.19;5113664;28;20087;-67
2023/07/16 04:18:44;;;;;;;4.85;3.08;;;;;;;23.85;61.27;96745.34;5126849;27;20492;-73
2023/07/16 04:21:12;;;;;;;3.30;3.00;;;;;;;24.13;60.79;96750.00;5134156;27;20043;-66
2023/07/16 04:23:39;;;;;;;4.07;3.17;;;;;;;24.43;59.89;96749.09;5120662;28;20083;-69
2023/07/16 04:26:06;;;;;;;2.80;2.33;;;;;;;24.77;58.72;96750.44;5113395;28;20485;-71
2023/07/16 04:28:33;;;;;;;5.93;3.30;;;;;;;25.08;58.33;96752.13;5125342;28;20476;-70
2023/07/16 04:31:00;;;;;;;3.20;2.75;;;;;;;25.52;56.83;96751.53;5134131;28;20086;-70
2023/07/16 04:33:27;;;;;;;3.35;2.75;;;;;;;25.73;56.19;96747.78;5122217;27;20065;-70
2023/07/16 04:35:54;;;;;;;5.25;2.92;;;;;;;26.02;55.30;96752.16;5117601;28;20039;-70
2023/07/16 04:38:23;;;;;;;5.88;2.90;;;;;;;26.28;55.25;96748.75;5127540;27;20097;-70
2023/07/16 04:40:50;;;;;;;7.07;2.67;;;;;;;26.56;54.21;96751.34;5138143;27;20557;-77
2023/07/16 04:43:17;;;;;;;4.70;3.10;;;;;;;26.73;53.33;96755.00;5128091;27;20043;-71
2023/07/16 04:45:46;;;;;;;7.95;2.80;;;;;;;26.97;53.29;96761.53;5117497;28;20048;-73
2023/07/16 04:48:13;;;;;;;5.65;3.13;;;;;;;27.33;52.51;96752.56;5125909;27;20039;-69
2023/07/16 04:50:40;;;;;;;6.38;3.22;;;;;;;27.66;50.81;96751.09;5138045;27;20098;-73
2023/07/16 04:53:08;;;;;;;5.50;2.72;;;;;;;27.98;50.36;96753.03;5129392;27;20055;-70
2023/07/16 04:55:39;;;;;;;5.43;3.00;;;;;;;28.26;50.59;96760.81;5117270;28;20059;-67
2023/07/16 04:58:06;;;;;;;4.03;2.88;;;;;;;28.54;49.64;96762.41;5124688;27;20054;-73
2023/07/16 05:00:33;;;;;;;6.35;3.03;;;;;;;28.84;49.45;96764.59;5137761;27;20130;-70
2023/07/16 05:03:00;;;;;;;3.75;3.05;;;;;;;29.09;49.40;96770.81;5130528;27;20104;-68
2023/07/16 05:05:28;;;;;;;5.07;3.22;;;;;;;29.37;48.76;96766.88;5117033;28;20043;-70
2023/07/16 05:07:55;;;;;;;3.83;2.78;;;;;;;29.69;47.73;96765.13;5122726;27;20366;-65
2023/07/16 05:10:23;;;;;;;4.30;2.88;;;;;;;30.00;47.56;96766.16;5125425;27;20498;-69
2023/07/16 05:12:51;;;;;;;3.28;2.97;;;;;;;30.26;47.20;96756.94;5136453;27;20054;-71
2023/07/16 05:15:19;;;;;;;5.00;3.20;;;;;;;30.46;45.96;96768.09;5128265;27;20480;-67
2023/07/16 05:17:46;;;;;;;7.97;3.28;;;;;;;30.70;45.33;96760.84;5116824;28;20454;-69
2023/07/16 05:20:13;;;;;;;5.78;3.40;;;;;;;30.94;45.09;96771.66;5116940;28;20143;-68
2023/07/16 05:22:40;;;;;;;4.55;3.22;;;;;;;31.17;44.46;96768.88;5116935;28;20541;-68
2023/07/16 05:25:08;;;;;;;6.32;3.92;;;;;;;31.35;43.95;96770.41;5116702;28;20477;-69
2023/07/16 05:27:35;;;;;;;6.60;4.00;;;;;;;31.51;43.50;96758.59;5117864;27;20047;-68
2023/07/16 05:30:04;;;;;;;5.75;3.20;;;;;;;31.67;42.25;96762.97;5115974;28;20059;-69
2023/07/16 05:32:31;;;;;;;5.53;4.00;;;;;;;31.85;43.25;96769.84;5116504;28;20051;-70
2023/07/16 05:34:59;;;;;;;3.95;3.30;;;;;;;32.03;42.42;96769.47;5116658;28;20081;-69
2023/07/16 05:37:27;;;;;;;3.47;3.17;;;;;;;32.17;41.80;96764.22;5116391;28;20040;-71
2023/07/16 05:39:54;;;;;;;7.40;3.85;;;;;;;32.31;41.56;96767.91;5116473;28;20055;-69
2023/07/16 05:42:21;;;;;;;5.57;3.58;;;;;;;32.42;41.38;96770.09;5121254;27;20043;-70
2023/07/16 05:44:50;;;;;;;3.25;2.90;;;;;;;32.55;41.52;96779.41;5134790;27;20047;-68
2023/07/16 05:47:19;;;;;;;4.20;3.17;;;;;;;32.68;40.57;96778.72;5126346;27;20480;-73
2023/07/16 05:49:48;;;;;;;3.85;3.22;;;;;;;32.75;40.73;96774.19;5122644;27;20048;-72
2023/07/16 05:52:15;;;;;;;4.28;3.53;;;;;;;32.87;39.92;96777.22;5123493;27;20190;-68
2023/07/16 05:54:44;;;;;;;4.72;3.03;;;;;;;33.00;39.57;96782.75;5124125;27;20492;-73
2023/07/16 05:57:12;;;;;;;4.38;3.13;;;;;;;33.12;39.70;96787.63;5136493;27;20078;-72
2023/07/16 05:59:39;;;;;;;7.22;3.53;;;;;;;33.10;39.27;96787.84;5136636;27;20047;-68
2023/07/16 06:02:07;;;;;;;5.55;3.28;;;;;;;33.18;39.23;96786.84;5136525;27;20510;-73
2023/07/16 06:04:36;;;;;;;5.30;3.53;;;;;;;33.27;39.06;96790.25;5136357;27;20047;-71
2023/07/16 06:07:04;;;;;;;8.32;3.55;;;;;;;33.38;37.98;96778.84;5136579;27;20066;-73
2023/07/16 06:09:31;;;;;;;8.57;3.17;;;;;;;33.55;35.76;96785.84;5127635;27;20062;-68
2023/07/16 06:11:59;;;;;;;3.65;2.90;;;;;;;33.73;36.52;96788.88;5115776;28;20466;-69
2023/07/16 06:14:27;;;;;;;5.53;2.72;;;;;;;33.86;35.27;96792.72;5115737;28;20048;-68
2023/07/16 06:16:54;;;;;;;3.97;3.00;;;;;;;34.00;34.17;96789.00;5115438;28;20047;-68
2023/07/16 06:19:21;;;;;;;3.85;2.80;;;;;;;34.06;32.43;96794.66;5115761;28;20048;-69
2023/07/16 06:21:50;;;;;;;5.07;2.80;;;;;;;33.98;34.51;96791.06;5116002;28;20051;-71
2023/07/16 06:24:17;;;;;;;2.97;2.67;;;;;;;34.06;32.79;96794.66;5115713;28;20416;-74
2023/07/16 06:26:46;;;;;;;3.60;2.67;;;;;;;34.27;33.79;96796.44;5115480;27;20074;-65
2023/07/16 06:29:14;;;;;;;6.85;3.00;;;;;;;34.43;32.77;96791.69;5113594;28;20123;-66
2023/07/16 06:31:55;;;;;;;3.83;2.70;;;;;;;34.53;32.68;96798.38;5114503;28;20058;-61
2023/07/16 06:34:23;;;;;;;3.92;3.20;;;;;;;34.64;33.08;96791.50;5114482;28;20444;-64
2023/07/16 06:36:51;;;;;;;4.32;3.40;;;;;;;34.82;33.09;96790.09;5114383;28;20054;-64
2023/07/16 06:39:19;;;;;;;4.10;2.83;;;;;;;34.98;32.59;96797.00;5114326;28;20055;-63
2023/07/16 06:41:46;;;;;;;4.75;3.42;;;;;;;35.14;33.17;96792.19;5114522;28;20047;-61
2023/07/16 06:44:14;;;;;;;9.35;3.40;;;;;;;35.37;32.78;96790.94;5116189;27;20047;-61
2023/07/16 06:46:41;;;;;;;7.78;3.45;;;;;;;35.55;33.08;96790.28;5115155;28;20066;-63
2023/07/16 06:49:09;;;;;;;6.38;3.60;;;;;;;35.66;32.24;96791.50;5125332;27;20431;-64
2023/07/16 06:51:37;;;;;;;6.88;3.17;;;;;;;35.75;32.95;96792.97;5120719;27;20039;-64
2023/07/16 06:54:06;;;;;;;6.43;3.78;;;;;;;35.92;32.19;96793.34;5124841;27;20096;-64
2023/07/16 06:56:33;;;;;;;6.45;3.67;;;;;;;35.85;31.21;96791.69;5117606;27;20093;-63
2023/07/16 06:59:01;;;;;;;4.32;3.60;;;;;;;35.78;33.22;96794.41;5113814;28;20451;-65
2023/07/16 07:01:28;;;;;;;7.18;3.42;;;;;;;35.86;33.12;96786.03;5114992;28;20477;-65
2023/07/16 07:03:56;;;;;;;3.95;3.30;;;;;;;35.90;32.22;96783.69;5115051;27;20046;-65
2023/07/16 07:06:23;;;;;;;7.05;3.70;;;;;;;35.81;31.29;96779.56;5114819;28;20123;-64
2023/07/16 07:08:51;;;;;;;4.93;3.95;;;;;;;35.89;31.85;96790.19;5114917;28;20048;-63
2023/07/16 07:11:20;;;;;;;6.03;3.40;;;;;;;35.86;32.25;96790.63;5114607;28;20052;-65
2023/07/16 07:13:47;;;;;;;7.70;3.47;;;;;;;35.97;31.40;96779.09;5114948;28;20531;-65
2023/07/16 07:16:16;;;;;;;5.03;3.10;;;;;;;35.91;31.47;96779.94;5114592;28;20134;-64
2023/07/16 07:18:44;;;;;;;6.13;4.13;;;;;;;35.94;31.10;96784.13;5121622;27;20070;-64
2023/07/16 07:21:12;;;;;;;9.23;3.40;;;;;;;36.13;31.29;96782.34;5134999;27;20126;-64
2023/07/16 07:23:39;;;;;;;4.65;3.58;;;;;;;36.28;31.08;96782.09;5135098;27;20043;-64
2023/07/16 07:26:07;;;;;;;5.50;3.58;;;;;;;36.29;31.55;96784.59;5134830;27;20047;-64
2023/07/16 07:28:35;;;;;;;4.20;3.35;;;;;;;36.28;30.77;96779.38;5134980;27;20051;-64
2023/07/16 07:31:03;;;;;;;5.30;3.40;;;;;;;36.12;30.48;96781.50;5134919;27;20061;-64
2023/07/16 07:33:32;;;;;;;10.27;7.75;;;;;;;36.26;31.45;96781.47;5135008;27;20475;-64
2023/07/16 07:35:59;;;;;;;6.35;5.25;;;;;;;36.35;30.42;96780.16;5130823;27;20039;-64
2023/07/16 07:38:26;;;;;;;6.78;3.88;;;;;;;36.56;31.11;96771.91;5114160;28;20052;-64
2023/07/16 07:40:53;;;;;;;11.63;10.57;;;;;;;36.46;30.81;96780.53;5114020;28;20059;-64
2023/07/16 07:43:20;;;;;;;5.00;4.45;;;;;;;36.46;30.90;96780.53;5114161;28;20116;-64
2023/07/16 07:45:49;;;;;;;7.18;4.35;;;;;;;36.52;29.84;96777.78;5113880;28;20049;-64
2023/07/16 07:48:16;;;;;;;74.30;66.43;;;;;;;36.60;29.38;96786.72;5114941;27;20440;-63
2023/07/16 07:50:43;;;;;;;12.68;9.75;;;;;;;36.72;30.82;96778.72;5114324;28;20047;-64
2023/07/16 07:53:11;;;;;;;7.82;7.05;;;;;;;36.62;30.01;96779.16;5113902;28;20495;-64
2023/07/16 07:55:38;;;;;;;6.18;4.63;;;;;;;36.65;29.69;96776.00;5113573;28;20098;-64
2023/07/16 07:58:05;;;;;;;6.20;3.92;;;;;;;36.78;30.24;96772.38;5113916;28;20134;-64
2023/07/16 08:00:33;;;;;;;6.90;3.78;;;;;;;36.89;29.98;96777.09;5121462;27;20099;-64
2023/07/16 08:03:01;;;;;;;6.15;3.28;;;;;;;36.88;29.22;96772.72;5134600;27;20079;-64
2023/07/16 08:05:28;;;;;;;9.45;3.88;;;;;;;36.96;31.06;96781.66;5134212;27;20047;-64
2023/07/16 08:07:56;;;;;;;5.50;3.13;;;;;;;36.64;27.91;96777.06;5134132;27;20047;-64
2023/07/16 08:10:24;;;;;;;5.00;3.35;;;;;;;36.21;27.63;96773.13;5133876;27;20053;-63
2023/07/16 08:12:52;;;;;;;9.13;4.00;;;;;;;36.08;29.54;96783.00;5134204;27;20134;-64
2023/07/16 08:15:19;;;;;;;12.48;3.85;;;;;;;36.06;30.19;96778.84;5132617;27;20035;-65
2023/07/16 08:17:47;;;;;;;10.02;3.78;;;;;;;36.28;30.13;96777.50;5133984;27;20127;-63
2023/07/16 08:20:18;;;;;;;7.35;3.30;;;;;;;36.53;30.06;96770.41;5134129;27;20078;-64
2023/07/16 08:22:46;;;;;;;4.53;3.30;;;;;;;36.81;29.77;96774.69;5134169;27;20450;-64
2023/07/16 08:25:14;;;;;;;5.53;3.22;;;;;;;36.92;28.54;96784.00;5134129;28;20335;-63
2023/07/16 08:27:43;;;;;;;9.13;3.80;;;;;;;37.00;29.20;96780.16;5134024;28;20480;-64
2023/07/16 08:30:11;;;;;;;4.95;3.30;;;;;;;37.18;27.90;96790.28;5133981;28;20401;-64
2023/07/16 08:32:39;;;;;;;4.18;3.40;;;;;;;37.01;28.88;96779.94;5132320;27;20051;-64
2023/07/16 08:35:07;;;;;;;3.78;3.38;;;;;;;36.83;27.75;96782.63;5133668;28;20053;-64
2023/07/16 08:37:36;;;;;;;6.13;3.63;;;;;;;36.67;29.67;96782.06;5132677;27;20066;-64
2023/07/16 08:40:05;;;;;;;8.43;3.47;;;;;;;36.69;29.49;96777.25;5133334;27;20047;-64
2023/07/16 08:42:33;;;;;;;6.35;3.28;;;;;;;36.33;29.70;96774.13;5113657;28;20374;-64
2023/07/16 08:45:02;;;;;;;29.00;23.70;;;;;;;36.12;30.58;96772.53;5113228;28;20043;-63
2023/07/16 08:47:30;;;;;;;15.77;8.63;;;;;;;36.13;31.20;96774.19;5113377;28;20079;-64
2023/07/16 08:49:57;;;;;;;4.32;3.63;;;;;;;36.16;31.12;96774.59;5130963;28;20035;-65
2023/07/16 08:52:28;;;;;;;3.17;2.88;;;;;;;36.20;29.54;96766.84;5133828;28;20043;-64
2023/07/16 08:54:58;;;;;;;7.00;3.72;;;;;;;36.12;30.16;96775.25;5133159;28;20450;-65
2023/07/16 08:57:27;;;;;;;3.55;3.00;;;;;;;36.09;31.29;96760.19;5133080;27;20043;-65
2023/07/16 08:59:57;;;;;;;3.50;2.97;;;;;;;36.15;30.24;96767.47;5134110;27;20043;-63
2023/07/16 09:02:24;;;;;;;;;;;;;;;35.91;29.73;96764.44;5134196;27;20047;-64
2023/07/16 09:04:52;;;;;;;6.18;3.75;;;;;;;35.97;31.85;96757.31;5118044;27;19928;-63
2023/07/16 09:07:19;;;;;;;3.95;3.30;;;;;;;35.98;30.40;96760.88;5113029;28;20039;-64
2023/07/16 09:10:01;;;;;;;6.68;3.70;;;;;;;35.96;30.80;96762.97;5120644;28;20130;-64
2023/07/16 09:12:29;;;;;;;5.07;3.33;;;;;;;36.20;30.41;96760.59;5132724;28;20051;-65
2023/07/16 09:14:58;;;;;;;7.32;3.28;;;;;;;35.74;30.16;96757.81;5133538;28;20065;-64
2023/07/16 09:17:26;;;;;;;5.13;3.42;;;;;;;35.70;30.77;96757.44;5126119;28;20108;-63
2023/07/16 09:19:54;;;;;;;10.23;3.75;;;;;;;35.62;31.23;96766.63;5112934;28;20493;-64
2023/07/16 09:22:21;;;;;;;5.07;3.30;;;;;;;35.61;32.08;96766.84;5115586;28;20054;-63
2023/07/16 09:24:49;;;;;;;6.72;3.45;;;;;;;35.69;32.56;96758.47;5116617;28;20500;-64
2023/07/16 09:27:19;;;;;;;4.80;3.55;;;;;;;35.84;31.18;96754.66;5118108;27;20092;-64
2023/07/16 09:29:47;;;;;;;5.97;3.80;;;;;;;35.55;31.96;96757.66;5126692;27;20043;-64
2023/07/16 09:32:14;;;;;;;5.53;3.53;;;;;;;35.32;31.38;96755.38;5116053;28;20101;-64
2023/07/16 09:34:41;;;;;;;4.88;3.53;;;;;;;35.20;34.59;96758.75;5116426;28;20108;-64
2023/07/16 09:37:09;;;;;;;4.65;3.40;;;;;;;34.99;31.87;96757.06;5116174;28;20062;-64
2023/07/16 09:39:38;;;;;;;5.35;3.67;;;;;;;34.63;32.72;96757.25;5121554;27;20043;-64
2023/07/16 09:42:08;;;;;;;6.60;3.83;;;;;;;34.39;33.07;96745.94;5132639;27;20457;-64
2023/07/16 09:44:37;;;;;;;6.57;3.58;;;;;;;34.43;33.93;96742.81;5132800;27;20052;-64
2023/07/16 09:47:05;;;;;;;6.07;4.15;;;;;;;34.70;33.98;96745.59;5115844;28;20051;-64
2023/07/16 09:49:32;;;;;;;8.40;4.25;;;;;;;34.86;34.49;96744.34;5127775;27;20051;-64
2023/07/16 09:52:02;;;;;;;5.47;3.42;;;;;;;35.02;33.34;96743.06;5136997;27;20086;-63
2023/07/16 09:54:36;;;;;;;6.40;4.22;;;;;;;35.23;33.97;96736.59;5136702;27;20050;-64
2023/07/16 09:57:06;;;;;;;9.38;4.40;;;;;;;35.48;33.03;96733.19;5136740;27;20484;-63
2023/07/16 09:59:35;;;;;;;6.32;3.83;;;;;;;35.64;32.92;96734.59;5135543;27;20047;-64
2023/07/16 10:02:08;;;;;;;7.47;3.60;;;;;;;35.61;32.41;96737.78;5116092;28;20059;-64
2023/07/16 10:04:41;;;;;;;5.72;3.38;;;;;;;35.67;32.32;96728.72;5116260;27;20105;-63
2023/07/16 10:07:09;;;;;;;6.20;3.80;;;;;;;35.77;31.85;96724.75;5136169;27;20139;-64
2023/07/16 10:09:38;;;;;;;5.63;4.05;;;;;;;35.81;33.08;96722.44;5136470;27;20179;-64
2023/07/16 10:12:18;;;;;;;5.18;3.42;;;;;;;35.95;31.12;96726.78;5136437;27;20086;-63
2023/07/16 10:14:48;;;;;;;9.30;3.83;;;;;;;36.03;31.64;96722.97;5120261;27;20050;-63
2023/07/16 10:17:17;;;;;;;;;;;;;;;35.92;31.65;96714.44;5116122;28;20066;-65
2023/07/16 10:19:50;;;;;;;4.15;3.50;;;;;;;36.00;32.39;96718.78;5116734;27;19920;-64
2023/07/16 10:22:21;;;;;;;8.15;4.05;;;;;;;36.08;32.43;96714.16;5115571;28;20047;-64
2023/07/16 10:24:56;;;;;;;4.80;3.65;;;;;;;35.94;30.96;96710.66;5127887;27;20044;-64
2023/07/16 10:27:31;;;;;;;9.20;3.92;;;;;;;35.92;30.04;96711.72;5114819;28;20104;-64
2023/07/16 10:30:03;;;;;;;12.60;3.83;;;;;;;35.50;31.14;96708.50;5115105;28;20149;-65
2023/07/16 10:32:34;;;;;;;5.68;3.60;;;;;;;35.32;32.36;96692.88;5115127;28;20101;-64
2023/07/16 10:35:02;;;;;;;5.00;3.95;;;;;;;35.28;31.74;96693.31;5114934;28;20047;-63
2023/07/16 10:37:31;;;;;;;7.22;4.22;;;;;;;35.21;33.01;96688.97;5114129;28;20044;-64
2023/07/16 10:40:01;;;;;;;8.98;3.80;;;;;;;35.14;34.55;96697.09;5129900;27;20369;-64
2023/07/16 10:42:29;;;;;;;;;;;;;;;35.07;33.06;96688.97;5136157;27;20498;-64
2023/07/16 10:44:59;;;;;;;7.03;3.75;;;;;;;34.90;32.88;96694.00;5136011;27;19919;-65
2023/07/16 10:47:35;;;;;;;7.50;3.83;;;;;;;34.89;34.49;96690.47;5135534;27;20066;-66
2023/07/16 10:50:08;;;;;;;5.25;3.72;;;;;;;34.84;33.95;96686.69;5135764;27;20043;-63
2023/07/16 10:52:37;;;;;;;7.85;4.40;;;;;;;34.92;33.24;96684.56;5136329;27;20051;-65
2023/07/16 10:55:06;;;;;;;6.97;3.60;;;;;;;34.96;34.59;96685.00;5135533;27;20404;-66
2023/07/16 10:57:35;;;;;;;8.52;4.53;;;;;;;35.08;34.57;96681.63;5118883;27;20716;-64
2023/07/16 11:00:03;;;;;;;9.13;4.63;;;;;;;35.18;34.32;96681.22;5114956;28;20199;-66
2023/07/16 11:02:33;;;;;;;9.05;4.20;;;;;;;35.28;33.15;96674.28;5114836;28;20040;-64
2023/07/16 11:05:02;;;;;;;14.07;4.70;;;;;;;35.34;32.78;96675.34;5114928;28;20086;-65
2023/07/16 11:07:31;;;;;;;8.82;3.97;;;;;;;35.32;34.35;96673.84;5114643;28;20051;-64
2023/07/16 11:10:02;;;;;;;9.02;4.47;;;;;;;35.21;33.19;96670.75;5114671;28;20126;-65
2023/07/16 11:12:30;;;;;;;7.65;4.40;;;;;;;35.14;33.03;96673.47;5115007;28;20078;-64
2023/07/16 11:15:01;;;;;;;11.45;4.65;;;;;;;35.24;33.98;96672.22;5129145;27;20039;-64
2023/07/16 11:17:29;;;;;;;8.15;4.32;;;;;;;35.31;32.98;96664.88;5134476;27;20051;-65
2023/07/16 11:20:02;;;;;;;7.68;4.35;;;;;;;35.44;32.06;96668.59;5135235;27;20051;-62
2023/07/16 11:22:31;;;;;;;6.88;4.03;;;;;;;35.36;31.54;96664.25;5135018;27;20062;-63
2023/07/16 11:24:59;;;;;;;4.97;4.05;;;;;;;35.35;33.62;96663.41;5130621;27;20046;-63
2023/07/16 11:27:29;;;;;;;7.45;4.13;;;;;;;35.12;32.37;96666.59;5114374;28;20119;-64
2023/07/16 11:29:59;;;;;;;13.00;4.82;;;;;;;35.12;31.94;96664.69;5114691;28;20051;-63
2023/07/16 11:32:33;;;;;;;5.70;4.65;;;;;;;35.06;33.32;96665.53;5114618;28;20052;-64
2023/07/16 11:35:05;;;;;;;13.73;4.63;;;;;;;34.80;31.94;96656.41;5119284;27;20054;-65
2023/07/16 11:37:34;;;;;;;10.68;4.32;;;;;;;34.62;32.59;96662.44;5114582;27;20446;-63
2023/07/16 11:40:06;;;;;;;5.67;4.37;;;;;;;34.58;32.59;96656.59;5122108;27;20043;-63